Time;durP1;ratioP1;P1;durP2;ratioP2;P2;SDS_P1;SDS_P2;PMS_P1;PMS_P2;Temp;Humidity;BMP_temperature;BMP_pressure;BME280_temperature;BME280_humidity;BME280_pressure;Samples;Min_cycle;Max_cycle;Signal;HPM_P1;HPM_P2
2022/01/23 00:00:37;;;;;;;0.30;0.20;;;;;;;-1.56;54.92;95512.31;5092323;28;20973;-53
2022/01/23 00:03:10;;;;;;;0.20;0.20;;;;;;;-1.54;55.10;95492.94;5091626;28;20478;-53
2022/01/23 00:05:42;;;;;;;0.30;0.30;;;;;;;-1.07;53.66;95525.22;5092121;28;20512;-53
2022/01/23 00:08:13;;;;;;;0.77;0.77;;;;;;;-1.45;53.58;95527.41;5091935;28;20521;-53
2022/01/23 00:10:45;;;;;;;0.20;0.10;;;;;;;-1.46;54.00;95505.00;5091879;28;20483;-53
2022/01/23 00:13:23;;;;;;;1.07;1.07;;;;;;;-1.48;52.08;95458.41;5091749;28;20432;-53
2022/01/23 00:18:40;;;;;;;0.20;0.17;;;;;;;-0.87;51.81;95539.16;5091688;28;20451;-53
2022/01/23 00:21:10;;;;;;;0.20;0.20;;;;;;;-0.79;51.29;95541.59;5091978;28;20447;-53
2022/01/23 00:32:12;;;;;;;0.20;0.20;;;;;;;-1.04;50.85;95564.69;5091717;28;20932;-53
2022/01/23 00:34:41;;;;;;;0.20;0.20;;;;;;;-1.36;51.33;95542.66;5091656;28;20941;-53
2022/01/23 00:37:10;;;;;;;0.30;0.20;;;;;;;-2.14;52.55;95454.56;5091559;28;20421;-53
2022/01/23 00:39:40;;;;;;;0.20;0.10;;;;;;;-1.96;52.96;95456.69;5091863;28;20437;-53
2022/01/23 00:42:13;;;;;;;1.40;0.77;;;;;;;-1.68;53.03;95527.66;5091231;28;20428;-53
2022/01/23 00:44:49;;;;;;;0.30;0.20;;;;;;;-1.70;53.11;95565.19;5091555;28;20436;-53
2022/01/23 00:47:18;;;;;;;0.20;0.10;;;;;;;-2.09;54.70;95565.63;5091879;28;20423;-53
2022/01/23 00:49:46;;;;;;;0.20;0.20;;;;;;;-2.01;54.93;95563.72;5090553;28;20468;-53
2022/01/23 00:52:17;;;;;;;0.43;0.43;;;;;;;-2.64;54.94;95468.47;5091805;28;20417;-53
2022/01/23 00:54:47;;;;;;;0.20;0.10;;;;;;;-2.71;57.33;95501.31;5091465;28;20424;-53
2022/01/23 00:57:17;;;;;;;0.43;0.43;;;;;;;-2.22;57.26;95555.94;5091708;28;20428;-53
2022/01/23 00:59:46;;;;;;;0.20;0.20;;;;;;;-2.01;58.00;95568.13;5094069;28;20420;-53
2022/01/23 01:02:16;;;;;;;0.20;0.20;;;;;;;-2.60;57.86;95516.41;5095135;28;20825;-53
2022/01/23 01:04:45;;;;;;;0.20;0.20;;;;;;;-3.79;57.83;95284.56;5095060;28;20821;-53
2022/01/23 01:07:15;;;;;;;0.20;0.20;;;;;;;-1.71;57.50;95574.78;5095335;28;20432;-53
2022/01/23 01:09:48;;;;;;;0.20;0.20;;;;;;;-1.40;56.73;95572.66;5095211;28;20498;-53
2022/01/23 01:12:24;;;;;;;0.20;0.10;;;;;;;-1.92;57.95;95576.59;5094749;28;20485;-53
2022/01/23 01:15:22;;;;;;;0.20;0.10;;;;;;;-2.01;58.55;95579.31;5095503;28;20460;-53
2022/01/23 01:31:52;;;;;;;0.20;0.20;;;;;;;-0.78;52.57;95590.00;5095004;28;20886;-53
2022/01/23 01:34:26;;;;;;;0.20;0.20;;;;;;;-0.97;53.01;95542.09;5094359;28;20435;-53
2022/01/23 01:36:56;;;;;;;0.20;0.20;;;;;;;-0.74;53.16;95570.44;5093546;28;20481;-53
2022/01/23 01:39:27;;;;;;;0.50;0.40;;;;;;;-1.53;52.37;95442.59;5094510;28;20872;-53
2022/01/23 01:41:57;;;;;;;0.20;0.20;;;;;;;-0.76;53.11;95533.41;5094479;28;20432;-53
2022/01/23 01:44:28;;;;;;;0.20;0.20;;;;;;;-1.36;52.53;95454.28;5094102;28;20874;-53
2022/01/23 01:47:00;;;;;;;0.30;0.20;;;;;;;-1.07;53.21;95531.25;5094420;28;20432;-53
2022/01/23 01:49:31;;;;;;;0.20;0.20;;;;;;;-0.86;53.60;95556.38;5094136;28;20994;-53
2022/01/23 01:52:02;;;;;;;0.20;0.20;;;;;;;-0.74;53.50;95557.44;5093905;28;20795;-53
2022/01/23 01:54:32;;;;;;;0.20;0.20;;;;;;;-0.87;53.93;95559.97;5094401;28;20432;-53
2022/01/23 01:57:08;;;;;;;0.20;0.20;;;;;;;-0.83;53.20;95563.78;5094763;28;20461;-53
2022/01/23 02:00:12;;;;;;;0.20;0.20;;;;;;;-0.86;53.25;95569.38;5093878;28;20432;-53
2022/01/23 02:08:24;;;;;;;0.20;0.20;;;;;;;-1.09;53.58;95574.84;5094228;28;20520;-53
2022/01/23 02:10:58;;;;;;;0.20;0.20;;;;;;;-1.18;53.10;95569.97;5092940;28;20971;-53
2022/01/23 02:13:31;;;;;;;4.40;1.80;;;;;;;-1.33;53.17;95534.50;5094156;28;20952;-53
2022/01/23 02:16:31;;;;;;;0.20;0.20;;;;;;;-2.42;55.29;95473.66;5094231;28;20562;-53
2022/01/23 02:52:41;;;;;;;0.20;0.20;;;;;;;-2.69;55.66;95597.13;5093713;28;20460;-52
2022/01/23 02:55:14;;;;;;;0.30;0.20;;;;;;;-3.12;57.30;95592.75;5093365;28;20428;-52
2022/01/23 03:00:34;;;;;;;0.20;0.20;;;;;;;-3.14;56.81;95558.44;5092700;28;20487;-53
2022/01/23 03:03:10;;;;;;;0.20;0.10;;;;;;;-4.04;55.06;95429.03;5090833;28;20468;-53
2022/01/23 03:06:17;;;;;;;0.30;0.20;;;;;;;-4.35;55.71;95467.16;5092790;28;20506;-53
2022/01/23 03:09:20;;;;;;;0.30;0.20;;;;;;;-3.99;55.71;95532.84;5092805;28;20441;-53
2022/01/23 03:14:48;;;;;;;0.20;0.20;;;;;;;-3.87;56.45;95597.97;5091713;28;20444;-52
2022/01/23 03:28:38;;;;;;;0.20;0.20;;;;;;;-3.26;53.30;95610.69;5059945;28;20513;-53
2022/01/23 03:31:20;;;;;;;0.20;0.20;;;;;;;-3.22;52.02;95611.16;5092860;28;20472;-53
2022/01/23 03:33:49;;;;;;;0.30;0.30;;;;;;;-5.28;52.30;95290.00;5093098;28;20485;-53
2022/01/23 03:36:18;;;;;;;0.20;0.20;;;;;;;-4.55;51.87;95378.88;5092657;28;20561;-53
2022/01/23 03:39:11;;;;;;;0.20;0.20;;;;;;;-3.40;50.97;95567.44;5092563;28;20425;-53
2022/01/23 03:41:42;;;;;;;0.20;0.20;;;;;;;-3.11;51.18;95631.44;5091984;28;20481;-53
2022/01/23 03:44:15;;;;;;;0.20;0.20;;;;;;;-2.68;49.61;95632.44;5092590;28;20432;-53
2022/01/23 03:49:36;;;;;;;0.63;0.63;;;;;;;-3.34;49.25;95512.28;5092118;28;21022;-53
2022/01/23 03:52:07;;;;;;;0.20;0.20;;;;;;;-2.45;49.38;95611.59;5092531;28;20478;-53
2022/01/23 03:54:37;;;;;;;0.20;0.20;;;;;;;-3.15;49.28;95562.78;5092114;28;20428;-53
2022/01/23 03:57:07;;;;;;;0.20;0.20;;;;;;;-2.94;50.22;95632.91;5092166;28;20966;-53
2022/01/23 03:59:38;;;;;;;0.20;0.20;;;;;;;-3.08;50.74;95638.88;5092288;28;20452;-53
2022/01/23 04:02:08;;;;;;;0.20;0.10;;;;;;;-2.96;51.10;95636.66;5091989;28;20616;-53
2022/01/23 04:04:40;;;;;;;0.20;0.20;;;;;;;-3.26;50.76;95587.38;5092072;28;20432;-53
2022/01/23 04:07:16;;;;;;;0.20;0.20;;;;;;;-2.78;49.91;95630.13;5092170;28;20481;-53
2022/01/23 04:09:45;;;;;;;0.20;0.17;;;;;;;-2.78;48.52;95631.91;5090895;28;20485;-53
2022/01/23 04:12:27;;;;;;;0.20;0.20;;;;;;;-3.17;49.31;95606.25;5092159;28;20424;-53
2022/01/23 04:15:09;;;;;;;1.90;1.90;;;;;;;-3.71;48.27;95493.44;5092171;28;20471;-53
2022/01/23 04:20:35;;;;;;;0.93;0.47;;;;;;;-2.44;47.05;95634.75;5058427;28;20443;-53
2022/01/23 04:31:52;;;;;;;0.20;0.20;;;;;;;-1.57;45.43;95649.25;5092181;28;20479;-53
2022/01/23 04:34:26;;;;;;;0.20;0.20;;;;;;;-3.08;46.38;95519.63;5090684;28;20974;-54
2022/01/23 04:45:22;;;;;;;0.20;0.10;;;;;;;-1.85;46.24;95661.41;5091899;28;20463;-53
2022/01/23 05:02:05;;;;;;;0.20;0.10;;;;;;;-2.91;46.67;95601.41;5090565;28;20964;-53
2022/01/23 05:04:37;;;;;;;0.40;0.40;;;;;;;-2.58;47.54;95695.25;5091168;28;20435;-53
2022/01/23 05:07:09;;;;;;;0.30;0.20;;;;;;;-5.37;47.78;95312.50;5091248;28;20420;-53
2022/01/23 05:09:38;;;;;;;0.20;0.20;;;;;;;-3.35;49.15;95697.28;5091215;28;20519;-53
2022/01/23 05:12:11;;;;;;;0.20;0.20;;;;;;;-3.49;49.88;95702.41;5090788;28;20468;-53
2022/01/23 05:14:45;;;;;;;0.20;0.20;;;;;;;-4.30;49.73;95534.69;5091410;28;21106;-53
2022/01/23 05:17:16;;;;;;;0.30;0.20;;;;;;;-3.60;48.68;95578.47;5091180;28;20459;-53
2022/01/23 05:19:46;;;;;;;0.30;0.20;;;;;;;-3.27;49.21;95702.41;5091604;28;20780;-52
2022/01/23 05:22:23;;;;;;;4.43;2.07;;;;;;;-3.15;50.03;95723.50;5091738;28;20481;-53
2022/01/23 05:24:55;;;;;;;0.20;0.10;;;;;;;-3.75;50.39;95678.63;5090181;28;20515;-53
2022/01/23 05:27:27;;;;;;;0.20;0.20;;;;;;;-3.66;50.37;95677.59;5090007;28;20425;-53
2022/01/23 05:29:58;;;;;;;0.20;0.20;;;;;;;-4.62;50.31;95564.16;5091050;28;20493;-52
2022/01/23 05:32:34;;;;;;;0.40;0.33;;;;;;;-3.09;48.84;95670.97;5091057;28;20540;-52
2022/01/23 05:35:09;;;;;;;0.20;0.20;;;;;;;-2.74;47.94;95729.94;5091157;28;20493;-52
2022/01/23 05:37:38;;;;;;;0.20;0.10;;;;;;;-3.10;46.68;95612.31;5090975;28;20492;-53
2022/01/23 05:40:11;;;;;;;0.20;0.20;;;;;;;-2.95;47.20;95729.81;5090604;28;20936;-53
2022/01/23 05:42:41;;;;;;;0.20;0.20;;;;;;;-3.53;48.84;95638.97;5091118;28;20978;-53
2022/01/23 05:45:10;;;;;;;0.20;0.20;;;;;;;-2.87;59.01;95625.19;5092729;28;20489;-52
2022/01/23 05:47:39;;;;;;;1.07;1.03;;;;;;;-2.45;50.56;95720.59;5094802;28;20424;-52
2022/01/23 05:50:10;;;;;;;0.47;0.47;;;;;;;-2.60;50.38;95726.56;5094497;28;20437;-52
2022/01/23 05:52:38;;;;;;;0.20;0.20;;;;;;;-3.21;49.24;95696.50;5094480;28;20520;-52
2022/01/23 05:55:08;;;;;;;0.20;0.20;;;;;;;-3.24;50.30;95724.56;5094775;28;20494;-52
2022/01/23 05:57:38;;;;;;;0.20;0.20;;;;;;;-3.12;51.22;95719.75;5094342;28;20844;-54
2022/01/23 06:00:13;;;;;;;0.20;0.20;;;;;;;-3.73;50.81;95687.03;5094826;28;20485;-53
2022/01/23 06:02:42;;;;;;;0.30;0.20;;;;;;;-3.38;51.49;95733.91;5093840;28;20518;-53
2022/01/23 06:05:12;;;;;;;0.87;0.87;;;;;;;-3.24;52.93;95738.31;5093767;28;20485;-53
2022/01/23 06:07:42;;;;;;;0.50;0.50;;;;;;;-3.40;52.64;95697.00;5094393;28;20432;-53
2022/01/23 06:10:20;;;;;;;0.30;0.30;;;;;;;-4.24;51.81;95593.53;5093953;28;20516;-53
2022/01/23 06:13:03;;;;;;;1.93;1.07;;;;;;;-3.46;52.59;95751.28;5093976;28;20441;-53
2022/01/23 06:15:32;;;;;;;3.27;3.07;;;;;;;-9.06;51.66;94937.56;5094273;28;20456;-53
2022/01/23 06:18:00;;;;;;;1.07;1.07;;;;;;;-3.40;53.47;95755.78;5094076;28;20460;-53
2022/01/23 06:20:30;;;;;;;1.13;1.13;;;;;;;-3.57;52.44;95752.50;5094098;28;20516;-53
2022/01/23 06:22:59;;;;;;;1.77;1.67;;;;;;;-5.75;52.89;95452.75;5093754;28;20477;-53
2022/01/23 06:25:32;;;;;;;0.20;0.20;;;;;;;-3.09;57.41;95716.81;5093863;28;20992;-53
2022/01/23 06:28:05;;;;;;;1.10;1.03;;;;;;;-3.05;53.37;95666.22;5094051;28;20475;-53
2022/01/23 06:30:36;;;;;;;0.70;0.70;;;;;;;-2.53;50.81;95739.63;5094118;28;20941;-53
2022/01/23 06:33:05;;;;;;;1.50;1.40;;;;;;;-1.72;49.75;95704.88;5094005;28;20429;-54
2022/01/23 06:35:37;;;;;;;0.20;0.17;;;;;;;-0.95;48.33;95745.63;5093921;28;20837;-53
2022/01/23 06:38:06;;;;;;;0.27;0.20;;;;;;;-0.19;48.17;95754.38;5093518;28;20472;-53
2022/01/23 06:40:35;;;;;;;0.20;0.20;;;;;;;0.25;44.46;95748.78;5094045;28;20425;-53
2022/01/23 06:43:05;;;;;;;0.40;0.40;;;;;;;0.48;43.51;95751.88;5093715;28;20478;-53
2022/01/23 06:45:34;;;;;;;0.20;0.13;;;;;;;-0.78;42.55;95587.41;5093851;28;20489;-53
2022/01/23 06:48:02;;;;;;;0.20;0.20;;;;;;;0.69;44.97;95748.28;5093610;28;20441;-53
2022/01/23 06:50:31;;;;;;;0.20;0.20;;;;;;;0.75;43.36;95742.28;5093514;28;20986;-54
2022/01/23 06:53:01;;;;;;;0.30;0.30;;;;;;;1.01;42.82;95742.34;5093248;28;20464;-53
2022/01/23 06:55:30;;;;;;;1.97;0.63;;;;;;;-1.46;44.36;95421.81;5093100;28;21005;-54
2022/01/23 06:57:58;;;;;;;0.30;0.20;;;;;;;0.98;42.17;95746.16;5092988;28;20425;-53
2022/01/23 07:00:26;;;;;;;0.80;0.80;;;;;;;0.58;43.14;95755.69;5092652;28;20985;-53
2022/01/23 07:02:56;;;;;;;1.47;1.47;;;;;;;1.03;42.19;95759.41;5092640;28;20487;-53
2022/01/23 07:05:24;;;;;;;0.30;0.30;;;;;;;2.19;41.74;95703.78;5093335;28;20433;-53
2022/01/23 07:07:53;;;;;;;0.30;0.27;;;;;;;1.90;39.65;95741.66;5093621;28;20478;-54
2022/01/23 07:10:25;;;;;;;0.30;0.20;;;;;;;1.03;41.57;95719.47;5092712;28;20456;-53
2022/01/23 07:12:53;;;;;;;0.30;0.20;;;;;;;1.08;41.13;95725.69;5092910;28;20529;-53
2022/01/23 07:15:22;;;;;;;0.30;0.20;;;;;;;1.56;40.58;95722.84;5092798;28;20431;-53
2022/01/23 07:17:57;;;;;;;0.30;0.30;;;;;;;1.34;39.86;95674.47;5092830;28;20432;-53
2022/01/23 07:20:25;;;;;;;0.30;0.23;;;;;;;2.14;38.53;95729.75;5092928;28;20436;-52
2022/01/23 07:22:54;;;;;;;0.47;0.47;;;;;;;1.70;39.21;95735.69;5092862;28;20475;-53
2022/01/23 07:25:24;;;;;;;0.30;0.20;;;;;;;2.43;39.23;95737.06;5092358;28;20436;-51
2022/01/23 07:27:53;;;;;;;0.40;0.30;;;;;;;2.16;38.28;95719.88;5092768;28;20428;-51
2022/01/23 07:33:04;;;;;;;0.50;0.50;;;;;;;3.69;35.98;95732.56;5092023;28;20562;-51
2022/01/23 07:35:33;;;;;;;0.40;0.40;;;;;;;3.65;36.09;95729.56;5092370;28;20494;-51
2022/01/23 07:38:03;;;;;;;0.30;0.20;;;;;;;4.35;35.17;95724.81;5091940;28;20440;-51
2022/01/23 07:40:33;;;;;;;0.30;0.20;;;;;;;4.24;35.14;95713.22;5092640;28;20429;-52
2022/01/23 07:43:01;;;;;;;2.30;1.03;;;;;;;4.53;35.21;95723.97;5092472;28;20432;-51
2022/01/23 07:45:30;;;;;;;0.30;0.30;;;;;;;5.25;33.71;95704.56;5092277;28;20468;-51
2022/01/23 07:47:58;;;;;;;0.30;0.30;;;;;;;5.45;33.35;95705.03;5092304;28;20490;-52
2022/01/23 07:50:27;;;;;;;0.40;0.33;;;;;;;5.91;32.14;95707.69;5089476;28;20494;-52
2022/01/23 07:52:55;;;;;;;0.30;0.20;;;;;;;6.70;32.54;95695.59;5090011;28;20917;-52
2022/01/23 07:55:24;;;;;;;0.60;0.60;;;;;;;6.01;31.87;95681.59;5090377;28;20975;-52
2022/01/23 07:57:54;;;;;;;0.50;0.50;;;;;;;6.66;31.43;95686.56;5090973;28;20436;-52
2022/01/23 08:00:22;;;;;;;0.43;0.43;;;;;;;7.27;31.59;95694.50;5091238;28;20456;-52
2022/01/23 08:02:50;;;;;;;0.40;0.40;;;;;;;7.14;30.70;95688.72;5090268;28;20522;-53
2022/01/23 08:05:19;;;;;;;0.70;0.70;;;;;;;6.68;30.25;95673.97;5089383;28;20829;-53
2022/01/23 08:07:47;;;;;;;0.40;0.40;;;;;;;6.92;30.57;95680.72;5088489;28;20478;-53
2022/01/23 08:10:16;;;;;;;0.40;0.30;;;;;;;8.29;28.77;95672.00;5089841;28;20432;-54
2022/01/23 08:12:45;;;;;;;1.43;0.50;;;;;;;5.69;29.34;95619.88;5090197;28;20463;-54
2022/01/23 08:15:15;;;;;;;0.60;0.60;;;;;;;5.41;31.16;95686.31;5091034;28;20452;-54
2022/01/23 08:17:44;;;;;;;5.83;1.17;;;;;;;4.82;32.19;95692.47;5090583;28;20481;-55
2022/01/23 08:20:12;;;;;;;0.30;0.20;;;;;;;5.73;31.70;95681.50;5091558;28;20940;-55
2022/01/23 08:22:41;;;;;;;0.50;0.50;;;;;;;6.19;29.72;95675.41;5091806;28;20459;-56
2022/01/23 08:25:10;;;;;;;0.70;0.50;;;;;;;7.69;28.90;95679.03;5091913;28;20424;-56
2022/01/23 08:27:39;;;;;;;1.00;0.50;;;;;;;6.03;30.15;95679.53;5091971;28;20917;-57
2022/01/23 08:30:09;;;;;;;0.30;0.20;;;;;;;7.35;28.83;95682.75;5091897;28;21092;-57
2022/01/23 08:32:39;;;;;;;0.30;0.30;;;;;;;7.94;27.86;95673.34;5091504;28;20468;-57
2022/01/23 08:35:08;;;;;;;4.00;0.90;;;;;;;7.85;27.17;95664.22;5092432;28;20455;-58
2022/01/23 08:37:37;;;;;;;0.53;0.53;;;;;;;8.46;26.68;95661.34;5093065;28;20474;-58
2022/01/23 08:40:16;;;;;;;4.67;0.40;;;;;;;10.41;24.90;95657.03;5091655;28;20854;-58
2022/01/23 08:42:45;;;;;;;0.53;0.53;;;;;;;11.27;22.87;95650.06;5091606;28;20417;-57
2022/01/23 08:45:14;;;;;;;1.00;0.40;;;;;;;10.32;24.86;95610.91;5091717;28;20428;-58
2022/01/23 08:47:44;;;;;;;0.40;0.30;;;;;;;9.96;24.31;95642.50;5092124;28;20773;-57
2022/01/23 08:50:12;;;;;;;0.70;0.70;;;;;;;9.91;26.34;95620.50;5091665;28;20490;-57
2022/01/23 08:52:41;;;;;;;0.40;0.30;;;;;;;11.87;26.50;95642.06;5092004;28;20871;-57
2022/01/23 08:55:10;;;;;;;0.40;0.30;;;;;;;10.55;22.57;95626.34;5091838;28;20432;-56
2022/01/23 08:57:39;;;;;;;0.30;0.20;;;;;;;11.82;24.77;95641.28;5091643;28;20951;-55
2022/01/23 09:00:27;;;;;;;0.53;0.53;;;;;;;10.85;22.09;95631.72;5091499;28;20779;-56
2022/01/23 09:02:57;;;;;;;0.50;0.40;;;;;;;11.72;21.47;95636.00;5091247;28;20479;-55
2022/01/23 09:05:27;;;;;;;0.87;0.87;;;;;;;11.78;21.25;95640.25;5091372;28;20917;-55
2022/01/23 09:07:57;;;;;;;0.50;0.30;;;;;;;12.51;21.16;95634.16;5091673;28;20496;-55
2022/01/23 09:10:28;;;;;;;0.40;0.40;;;;;;;12.85;19.84;95593.56;5090948;28;20921;-55
2022/01/23 09:13:08;;;;;;;0.40;0.30;;;;;;;11.82;20.52;95625.34;5089965;28;20553;-55
2022/01/23 09:15:37;;;;;;;1.33;0.47;;;;;;;11.29;21.26;95630.16;5091158;28;20478;-55
2022/01/23 09:18:07;;;;;;;3.70;0.73;;;;;;;11.82;21.04;95631.47;5091320;28;20438;-55
2022/01/23 09:20:35;;;;;;;0.30;0.20;;;;;;;12.94;19.87;95621.16;5094393;28;20452;-55
2022/01/23 09:23:04;;;;;;;0.30;0.20;;;;;;;12.72;19.94;95608.25;5095363;28;20427;-55
2022/01/23 09:25:32;;;;;;;0.57;0.57;;;;;;;12.22;20.03;95619.13;5095288;28;20460;-55
2022/01/23 09:28:05;;;;;;;0.30;0.20;;;;;;;12.19;19.68;95590.44;5095210;28;20932;-55
2022/01/23 09:30:39;;;;;;;0.30;0.20;;;;;;;11.02;21.53;95603.09;5095025;28;20420;-54
2022/01/23 09:33:09;;;;;;;0.30;0.20;;;;;;;10.97;20.98;95599.63;5094927;28;20521;-54
2022/01/23 09:35:38;;;;;;;0.60;0.47;;;;;;;10.70;21.59;95598.00;5095406;28;20428;-54
2022/01/23 09:38:06;;;;;;;0.30;0.30;;;;;;;10.76;21.60;95580.25;5095118;28;20467;-54
2022/01/23 09:40:38;;;;;;;0.40;0.30;;;;;;;11.62;21.41;95596.94;5095395;28;20835;-54
2022/01/23 09:43:08;;;;;;;0.37;0.30;;;;;;;12.14;20.98;95575.31;5095262;28;20416;-54
2022/01/23 09:45:37;;;;;;;0.43;0.43;;;;;;;11.31;20.98;95587.41;5095027;28;20897;-53
2022/01/23 09:48:06;;;;;;;0.30;0.20;;;;;;;11.67;21.77;95580.22;5095193;28;20424;-53
2022/01/23 09:50:36;;;;;;;1.17;0.40;;;;;;;12.38;20.47;95562.16;5095117;28;20433;-54
2022/01/23 09:53:07;;;;;;;0.30;0.20;;;;;;;12.32;20.13;95531.38;5095081;28;20520;-54
2022/01/23 09:55:37;;;;;;;0.37;0.30;;;;;;;9.37;22.37;95577.56;5094773;28;20481;-53
2022/01/23 09:58:06;;;;;;;0.30;0.30;;;;;;;11.82;21.08;95548.34;5094932;28;20512;-53
2022/01/23 10:00:34;;;;;;;0.57;0.57;;;;;;;12.85;19.84;95565.06;5094650;28;20464;-53
2022/01/23 10:03:03;;;;;;;0.60;0.50;;;;;;;12.64;20.07;95575.06;5094458;28;20972;-53
2022/01/23 10:05:31;;;;;;;0.90;0.90;;;;;;;12.85;20.09;95561.63;5094557;28;20518;-54
2022/01/23 10:08:02;;;;;;;0.80;0.43;;;;;;;13.26;19.33;95555.72;5094824;28;20516;-54
2022/01/23 10:10:35;;;;;;;0.50;0.50;;;;;;;13.15;20.05;95545.47;5094368;28;20435;-54
2022/01/23 10:13:08;;;;;;;0.97;0.70;;;;;;;12.99;20.85;95550.06;5094295;28;20924;-54
2022/01/23 10:15:37;;;;;;;1.00;1.00;;;;;;;14.25;24.45;95540.00;5094645;28;20448;-54
2022/01/23 10:18:05;;;;;;;0.40;0.40;;;;;;;11.98;20.51;95558.66;5094279;28;20429;-54
2022/01/23 10:20:34;;;;;;;0.87;0.87;;;;;;;10.94;20.84;95555.88;5094423;28;20481;-54
2022/01/23 10:23:04;;;;;;;5.90;0.37;;;;;;;10.55;20.88;95550.28;5094131;28;20512;-53
2022/01/23 10:25:33;;;;;;;0.83;0.83;;;;;;;9.88;22.05;95542.38;5094082;28;20482;-54
2022/01/23 10:28:06;;;;;;;0.60;0.50;;;;;;;10.00;21.87;95542.97;5093964;28;20433;-54
2022/01/23 10:30:38;;;;;;;0.40;0.33;;;;;;;10.78;21.57;95547.13;5093827;28;20443;-53
2022/01/23 10:33:10;;;;;;;0.97;0.73;;;;;;;10.07;21.91;95514.38;5093619;28;20464;-53
2022/01/23 10:36:01;;;;;;;1.03;0.50;;;;;;;10.42;21.84;95544.69;5094212;28;20420;-53
2022/01/23 10:38:37;;;;;;;0.60;0.40;;;;;;;10.29;21.47;95486.91;5093831;28;20429;-53
2022/01/23 10:41:28;;;;;;;0.40;0.30;;;;;;;12.79;20.49;95522.81;5094035;28;20436;-53
2022/01/23 10:49:58;;;;;;;0.50;0.30;;;;;;;10.43;21.80;95520.56;5092935;28;20444;-52
2022/01/23 10:52:32;;;;;;;1.43;0.40;;;;;;;10.70;21.52;95515.81;5092857;28;20912;-52
2022/01/23 10:55:05;;;;;;;0.30;0.20;;;;;;;11.97;20.56;95516.41;5092697;28;20520;-52
2022/01/23 10:57:38;;;;;;;0.57;0.40;;;;;;;13.45;19.41;95504.44;5092884;28;20433;-53
2022/01/23 11:00:08;;;;;;;0.40;0.40;;;;;;;12.77;19.74;95507.94;5092834;28;20425;-53
2022/01/23 11:02:39;;;;;;;0.73;0.73;;;;;;;11.15;21.64;95466.47;5092977;28;20472;-53
2022/01/23 11:05:10;;;;;;;5.73;0.77;;;;;;;11.53;21.89;95473.00;5093325;28;20432;-53
2022/01/23 11:07:41;;;;;;;0.50;0.50;;;;;;;10.80;21.05;95507.09;5093895;28;20877;-53
2022/01/23 11:10:14;;;;;;;0.40;0.40;;;;;;;11.78;20.62;95515.44;5093621;28;20452;-53
2022/01/23 11:18:33;;;;;;;0.50;0.50;;;;;;;12.38;19.78;95496.53;5093330;28;20497;-53
2022/01/23 11:21:14;;;;;;;1.10;0.60;;;;;;;13.69;19.22;95492.72;5093034;28;20513;-53
2022/01/23 11:23:43;;;;;;;1.00;0.57;;;;;;;11.98;19.76;95502.06;5093025;28;20524;-54
2022/01/23 11:26:14;;;;;;;1.57;0.73;;;;;;;13.03;19.63;95495.22;5092895;28;20594;-53
2022/01/23 11:28:47;;;;;;;0.40;0.40;;;;;;;13.64;19.23;95487.44;5092864;28;20420;-54
2022/01/23 11:31:18;;;;;;;0.50;0.40;;;;;;;13.53;19.27;95486.00;5093135;28;20425;-53
2022/01/23 11:33:48;;;;;;;0.40;0.40;;;;;;;13.98;17.95;95471.31;5093101;28;20464;-53
2022/01/23 11:36:18;;;;;;;0.50;0.30;;;;;;;12.43;19.63;95477.88;5093053;28;20479;-53
2022/01/23 11:38:49;;;;;;;0.67;0.67;;;;;;;12.28;19.50;95471.88;5092678;28;20459;-53
2022/01/23 11:55:30;;;;;;;0.40;0.40;;;;;;;12.68;20.59;95453.75;5092404;28;20529;-53
2022/01/23 11:58:00;;;;;;;0.40;0.30;;;;;;;14.17;19.25;95455.34;5092735;28;20424;-53
2022/01/23 12:00:31;;;;;;;0.53;0.43;;;;;;;13.10;20.07;95457.69;5092412;28;20966;-53
2022/01/23 12:03:12;;;;;;;0.50;0.30;;;;;;;14.39;18.79;95450.25;5092375;28;20463;-53
2022/01/23 12:05:44;;;;;;;0.40;0.27;;;;;;;15.05;18.36;95453.44;5092408;28;20428;-53
2022/01/23 12:08:33;;;;;;;3.63;0.63;;;;;;;14.71;17.85;95463.63;5092166;28;20978;-53
2022/01/23 12:17:17;;;;;;;1.50;1.13;;;;;;;12.15;21.38;95460.00;5092169;28;20977;-53
2022/01/23 12:19:49;;;;;;;0.50;0.50;;;;;;;10.87;20.94;95459.09;5092113;28;20413;-53
2022/01/23 12:22:45;;;;;;;0.40;0.30;;;;;;;10.99;22.27;95460.41;5092430;28;20428;-54
2022/01/23 12:25:23;;;;;;;0.40;0.40;;;;;;;11.61;22.05;95453.88;5076561;28;20825;-52
2022/01/23 12:28:25;;;;;;;0.87;0.87;;;;;;;11.41;22.00;95460.81;5092001;28;20428;-53
2022/01/23 12:30:56;;;;;;;0.50;0.30;;;;;;;9.49;22.89;95461.75;5091900;28;20424;-52
2022/01/23 12:33:31;;;;;;;1.13;1.03;;;;;;;9.16;22.95;95462.91;5092330;28;20504;-53
2022/01/23 12:36:06;;;;;;;0.30;0.30;;;;;;;9.04;22.72;95459.69;5091663;28;20476;-53
2022/01/23 12:38:40;;;;;;;0.43;0.43;;;;;;;12.01;32.77;95459.03;5091578;28;20420;-52
2022/01/23 12:41:24;;;;;;;0.30;0.20;;;;;;;11.51;20.80;95460.00;5091669;28;20423;-52
2022/01/23 12:43:56;;;;;;;0.50;0.40;;;;;;;12.39;20.44;95446.81;5091718;28;20412;-53
2022/01/23 12:46:35;;;;;;;0.30;0.20;;;;;;;11.08;21.32;95469.41;5092039;28;20424;-52
2022/01/23 12:49:19;;;;;;;0.50;0.30;;;;;;;11.75;21.11;95468.16;5091702;28;20485;-53
2022/01/23 12:51:49;;;;;;;0.40;0.40;;;;;;;10.89;21.82;95456.97;5091695;28;20448;-53
2022/01/23 12:54:26;;;;;;;0.40;0.30;;;;;;;11.03;21.56;95450.06;5092273;28;20516;-54
2022/01/23 12:56:56;;;;;;;0.40;0.30;;;;;;;8.56;23.65;95465.97;5095678;28;20478;-55
2022/01/23 12:59:32;;;;;;;0.40;0.30;;;;;;;8.30;24.61;95474.72;5095640;28;20429;-54
2022/01/23 13:02:07;;;;;;;0.40;0.30;;;;;;;8.85;23.67;95430.22;5095889;28;20474;-54
2022/01/23 13:04:40;;;;;;;0.30;0.20;;;;;;;10.70;25.08;95438.19;5095787;28;20477;-56
2022/01/23 13:10:10;;;;;;;0.30;0.30;;;;;;;8.42;24.19;95435.75;5092024;28;20846;-58
2022/01/23 13:12:51;;;;;;;0.40;0.30;;;;;;;7.32;26.19;95481.03;5095559;28;20507;-58
2022/01/23 13:18:34;;;;;;;0.30;0.20;;;;;;;8.50;24.89;95469.59;5095222;28;20440;-57
2022/01/23 13:27:23;;;;;;;0.50;0.50;;;;;;;9.02;24.74;95467.09;5090947;28;20462;-56
2022/01/23 13:32:42;;;;;;;0.63;0.63;;;;;;;8.45;25.44;95469.56;5088067;28;20868;-55
2022/01/23 13:35:17;;;;;;;5.90;0.67;;;;;;;7.23;25.74;95476.44;5095402;28;20891;-55
2022/01/23 13:37:55;;;;;;;0.50;0.40;;;;;;;6.88;30.44;95387.16;5095770;28;20444;-55
2022/01/23 13:40:29;;;;;;;0.40;0.30;;;;;;;7.29;24.20;95396.34;5095431;28;20424;-55
2022/01/23 13:51:32;;;;;;;0.30;0.20;;;;;;;5.38;26.87;95486.19;5094924;28;20428;-54
2022/01/23 13:59:41;;;;;;;0.40;0.30;;;;;;;5.94;25.53;95494.16;5095060;28;20433;-54
2022/01/23 14:02:17;;;;;;;0.90;0.90;;;;;;;5.18;27.10;95498.94;5094367;28;21001;-54
2022/01/23 14:04:48;;;;;;;0.30;0.20;;;;;;;4.55;26.41;95504.06;5095182;28;20416;-55
2022/01/23 14:07:23;;;;;;;0.30;0.20;;;;;;;4.48;26.02;95422.81;5094494;28;20428;-55
2022/01/23 14:09:54;;;;;;;0.40;0.30;;;;;;;5.35;26.03;95490.09;5094869;28;20447;-54
2022/01/23 14:12:24;;;;;;;0.30;0.20;;;;;;;4.67;26.04;95507.50;5094461;28;20464;-54
2022/01/23 14:15:16;;;;;;;0.43;0.37;;;;;;;3.74;27.03;95508.06;5094373;28;20537;-55
2022/01/23 14:17:57;;;;;;;0.60;0.60;;;;;;;3.15;28.61;95503.56;5094274;28;20421;-54
2022/01/23 14:20:26;;;;;;;0.30;0.20;;;;;;;3.16;32.42;95504.38;5094185;28;20420;-54
2022/01/23 14:22:56;;;;;;;2.10;2.10;;;;;;;2.62;34.07;95502.50;5094450;28;20421;-54
2022/01/23 14:25:28;;;;;;;0.30;0.20;;;;;;;2.48;39.16;95506.22;5094237;28;20416;-54
2022/01/23 14:28:06;;;;;;;1.17;1.17;;;;;;;3.06;32.79;95525.81;5094098;28;20900;-54
2022/01/23 14:30:42;;;;;;;0.70;0.70;;;;;;;4.04;27.77;95523.00;5094358;28;20434;-54
2022/01/23 14:33:18;;;;;;;0.33;0.27;;;;;;;3.94;29.82;95510.44;5093985;28;20450;-54
2022/01/23 14:35:47;;;;;;;0.30;0.20;;;;;;;4.11;31.39;95527.13;5093954;28;20467;-54
2022/01/23 14:38:19;;;;;;;0.30;0.20;;;;;;;4.82;28.68;95513.91;5094189;28;20429;-53
2022/01/23 14:40:57;;;;;;;0.30;0.20;;;;;;;3.83;27.97;95537.41;5093881;28;20420;-53
2022/01/23 14:43:34;;;;;;;0.30;0.20;;;;;;;3.92;35.08;95537.91;5093888;28;20974;-53
2022/01/23 14:46:04;;;;;;;0.40;0.40;;;;;;;3.68;31.21;95537.00;5094320;28;20427;-53
2022/01/23 14:48:38;;;;;;;0.60;0.60;;;;;;;3.85;28.67;95541.41;5093649;28;20845;-53
2022/01/23 14:51:08;;;;;;;0.30;0.20;;;;;;;2.85;27.49;95554.22;5093997;28;20436;-54
2022/01/23 14:53:40;;;;;;;0.30;0.20;;;;;;;3.12;27.49;95558.19;5093620;28;20420;-53
2022/01/23 14:56:13;;;;;;;0.30;0.23;;;;;;;3.57;33.18;95554.25;5093916;28;20464;-53
2022/01/23 14:58:43;;;;;;;0.30;0.30;;;;;;;3.01;27.58;95548.44;5093815;28;20501;-53
2022/01/23 15:01:14;;;;;;;3.20;1.03;;;;;;;2.85;26.82;95559.44;5093291;28;20424;-53
2022/01/23 15:03:45;;;;;;;0.83;0.83;;;;;;;3.52;28.21;95554.13;5092642;28;20946;-53